sensor_id;sensor_type;location;lat;lon;timestamp;P1;durP1;ratioP1;P2;durP2;ratioP2
43620;SDS011;29213;50.770;7.298;2023-02-08T00:02:22;18.92;;;11.43;;
43620;SDS011;29213;50.770;7.298;2023-02-08T00:04:47;16.70;;;10.90;;
43620;SDS011;29213;50.770;7.298;2023-02-08T00:07:13;19.95;;;12.25;;
43620;SDS011;29213;50.770;7.298;2023-02-08T00:09:38;21.88;;;11.75;;
43620;SDS011;29213;50.770;7.298;2023-02-08T00:12:04;19.55;;;11.63;;
43620;SDS011;29213;50.770;7.298;2023-02-08T00:14:29;17.70;;;10.82;;
43620;SDS011;29213;50.770;7.298;2023-02-08T00:16:55;18.35;;;11.00;;
43620;SDS011;29213;50.770;7.298;2023-02-08T00:19:20;17.33;;;10.95;;
43620;SDS011;29213;50.770;7.298;2023-02-08T00:21:45;15.05;;;10.00;;
43620;SDS011;29213;50.770;7.298;2023-02-08T00:24:11;17.80;;;11.30;;
43620;SDS011;29213;50.770;7.298;2023-02-08T00:26:36;19.10;;;12.13;;
43620;SDS011;29213;50.770;7.298;2023-02-08T00:29:02;16.10;;;10.60;;
43620;SDS011;29213;50.770;7.298;2023-02-08T00:31:27;19.90;;;11.77;;
43620;SDS011;29213;50.770;7.298;2023-02-08T00:33:53;17.42;;;10.73;;
43620;SDS011;29213;50.770;7.298;2023-02-08T00:36:18;14.77;;;9.40;;
43620;SDS011;29213;50.770;7.298;2023-02-08T00:38:44;18.02;;;10.85;;
43620;SDS011;29213;50.770;7.298;2023-02-08T00:41:09;16.50;;;10.82;;
43620;SDS011;29213;50.770;7.298;2023-02-08T00:43:34;16.38;;;10.70;;
43620;SDS011;29213;50.770;7.298;2023-02-08T00:46:00;19.38;;;11.02;;
43620;SDS011;29213;50.770;7.298;2023-02-08T00:48:26;19.58;;;11.25;;
43620;SDS011;29213;50.770;7.298;2023-02-08T00:50:56;18.73;;;10.82;;
43620;SDS011;29213;50.770;7.298;2023-02-08T00:53:25;16.58;;;10.25;;
43620;SDS011;29213;50.770;7.298;2023-02-08T00:55:51;15.32;;;10.43;;
43620;SDS011;29213;50.770;7.298;2023-02-08T00:58:17;18.83;;;10.85;;
43620;SDS011;29213;50.770;7.298;2023-02-08T01:00:43;16.38;;;10.43;;
43620;SDS011;29213;50.770;7.298;2023-02-08T01:03:08;15.38;;;10.00;;
43620;SDS011;29213;50.770;7.298;2023-02-08T01:05:36;15.35;;;10.25;;
43620;SDS011;29213;50.770;7.298;2023-02-08T01:08:02;17.55;;;11.15;;
43620;SDS011;29213;50.770;7.298;2023-02-08T01:10:28;16.60;;;10.93;;
43620;SDS011;29213;50.770;7.298;2023-02-08T01:12:53;16.75;;;10.82;;
43620;SDS011;29213;50.770;7.298;2023-02-08T01:15:18;18.63;;;11.05;;
43620;SDS011;29213;50.770;7.298;2023-02-08T01:17:44;17.20;;;10.65;;
43620;SDS011;29213;50.770;7.298;2023-02-08T01:20:09;16.95;;;11.07;;
43620;SDS011;29213;50.770;7.298;2023-02-08T01:22:35;16.50;;;10.18;;
43620;SDS011;29213;50.770;7.298;2023-02-08T01:25:00;19.63;;;11.15;;
43620;SDS011;29213;50.770;7.298;2023-02-08T01:27:26;19.02;;;11.73;;
43620;SDS011;29213;50.770;7.298;2023-02-08T01:29:51;16.92;;;10.30;;
43620;SDS011;29213;50.770;7.298;2023-02-08T01:32:17;17.42;;;10.15;;
43620;SDS011;29213;50.770;7.298;2023-02-08T01:34:42;17.88;;;11.27;;
43620;SDS011;29213;50.770;7.298;2023-02-08T01:37:07;17.77;;;10.70;;
43620;SDS011;29213;50.770;7.298;2023-02-08T01:39:34;19.08;;;10.10;;
43620;SDS011;29213;50.770;7.298;2023-02-08T01:41:59;17.25;;;10.02;;
43620;SDS011;29213;50.770;7.298;2023-02-08T01:47:28;15.95;;;10.32;;
43620;SDS011;29213;50.770;7.298;2023-02-08T01:49:53;18.73;;;10.77;;
43620;SDS011;29213;50.770;7.298;2023-02-08T01:52:20;15.85;;;10.52;;
43620;SDS011;29213;50.770;7.298;2023-02-08T01:54:53;16.80;;;10.40;;
43620;SDS011;29213;50.770;7.298;2023-02-08T01:57:22;15.80;;;10.10;;
43620;SDS011;29213;50.770;7.298;2023-02-08T01:59:53;17.95;;;10.75;;
43620;SDS011;29213;50.770;7.298;2023-02-08T02:02:23;15.05;;;10.25;;
43620;SDS011;29213;50.770;7.298;2023-02-08T02:04:50;16.13;;;10.30;;
43620;SDS011;29213;50.770;7.298;2023-02-08T02:07:17;16.20;;;10.48;;
43620;SDS011;29213;50.770;7.298;2023-02-08T02:09:46;17.00;;;10.07;;
43620;SDS011;29213;50.770;7.298;2023-02-08T02:12:17;18.77;;;10.77;;
43620;SDS011;29213;50.770;7.298;2023-02-08T02:14:42;14.90;;;10.05;;
43620;SDS011;29213;50.770;7.298;2023-02-08T02:17:10;15.00;;;9.95;;
43620;SDS011;29213;50.770;7.298;2023-02-08T02:22:45;15.70;;;10.15;;
43620;SDS011;29213;50.770;7.298;2023-02-08T02:31:26;15.63;;;9.13;;
43620;SDS011;29213;50.770;7.298;2023-02-08T02:37:02;15.82;;;9.60;;
43620;SDS011;29213;50.770;7.298;2023-02-08T02:47:59;16.67;;;10.05;;
43620;SDS011;29213;50.770;7.298;2023-02-08T02:50:50;15.68;;;9.93;;
43620;SDS011;29213;50.770;7.298;2023-02-08T02:53:30;15.75;;;9.93;;
43620;SDS011;29213;50.770;7.298;2023-02-08T02:56:11;15.85;;;10.00;;
43620;SDS011;29213;50.770;7.298;2023-02-08T02:58:41;18.02;;;10.52;;
43620;SDS011;29213;50.770;7.298;2023-02-08T03:01:08;17.63;;;10.10;;
43620;SDS011;29213;50.770;7.298;2023-02-08T03:03:34;14.90;;;9.65;;
43620;SDS011;29213;50.770;7.298;2023-02-08T03:06:02;17.98;;;11.13;;
43620;SDS011;29213;50.770;7.298;2023-02-08T03:08:40;15.35;;;10.38;;
43620;SDS011;29213;50.770;7.298;2023-02-08T03:19:52;15.75;;;9.93;;
43620;SDS011;29213;50.770;7.298;2023-02-08T03:23:10;16.02;;;9.90;;
43620;SDS011;29213;50.770;7.298;2023-02-08T03:25:23;15.07;;;9.50;;
43620;SDS011;29213;50.770;7.298;2023-02-08T03:28:04;15.80;;;10.25;;
43620;SDS011;29213;50.770;7.298;2023-02-08T03:30:37;13.15;;;8.55;;
43620;SDS011;29213;50.770;7.298;2023-02-08T03:35:54;16.25;;;10.50;;
43620;SDS011;29213;50.770;7.298;2023-02-08T03:41:08;16.33;;;10.48;;
43620;SDS011;29213;50.770;7.298;2023-02-08T03:43:56;17.80;;;9.87;;
43620;SDS011;29213;50.770;7.298;2023-02-08T03:46:39;16.42;;;10.82;;
43620;SDS011;29213;50.770;7.298;2023-02-08T03:49:12;16.52;;;10.73;;
43620;SDS011;29213;50.770;7.298;2023-02-08T03:51:41;17.23;;;10.90;;
43620;SDS011;29213;50.770;7.298;2023-02-08T03:54:11;15.45;;;10.05;;
43620;SDS011;29213;50.770;7.298;2023-02-08T03:56:47;16.13;;;9.98;;
43620;SDS011;29213;50.770;7.298;2023-02-08T03:59:20;15.82;;;10.45;;
43620;SDS011;29213;50.770;7.298;2023-02-08T04:01:52;16.58;;;10.18;;
43620;SDS011;29213;50.770;7.298;2023-02-08T04:04:25;16.70;;;10.18;;
43620;SDS011;29213;50.770;7.298;2023-02-08T04:06:55;17.35;;;11.30;;
43620;SDS011;29213;50.770;7.298;2023-02-08T04:09:20;16.23;;;10.48;;
43620;SDS011;29213;50.770;7.298;2023-02-08T04:11:46;16.75;;;10.30;;
43620;SDS011;29213;50.770;7.298;2023-02-08T04:14:11;16.65;;;10.18;;
43620;SDS011;29213;50.770;7.298;2023-02-08T04:16:36;16.42;;;10.73;;
43620;SDS011;29213;50.770;7.298;2023-02-08T04:19:02;16.10;;;10.13;;
43620;SDS011;29213;50.770;7.298;2023-02-08T04:21:27;18.58;;;10.88;;
43620;SDS011;29213;50.770;7.298;2023-02-08T04:23:53;16.90;;;10.70;;
43620;SDS011;29213;50.770;7.298;2023-02-08T04:26:18;17.70;;;10.70;;
43620;SDS011;29213;50.770;7.298;2023-02-08T04:28:43;14.68;;;9.70;;
43620;SDS011;29213;50.770;7.298;2023-02-08T04:31:09;15.73;;;10.43;;
43620;SDS011;29213;50.770;7.298;2023-02-08T04:33:34;17.43;;;9.93;;
43620;SDS011;29213;50.770;7.298;2023-02-08T04:36:00;17.00;;;10.50;;
43620;SDS011;29213;50.770;7.298;2023-02-08T04:38:25;15.93;;;10.00;;
43620;SDS011;29213;50.770;7.298;2023-02-08T04:40:50;15.70;;;10.25;;
43620;SDS011;29213;50.770;7.298;2023-02-08T04:43:16;18.20;;;10.73;;
43620;SDS011;29213;50.770;7.298;2023-02-08T04:45:41;19.25;;;11.32;;
43620;SDS011;29213;50.770;7.298;2023-02-08T04:48:06;16.52;;;11.05;;
43620;SDS011;29213;50.770;7.298;2023-02-08T04:50:32;19.08;;;10.98;;
43620;SDS011;29213;50.770;7.298;2023-02-08T04:52:58;16.35;;;10.48;;
43620;SDS011;29213;50.770;7.298;2023-02-08T04:55:24;14.18;;;10.25;;
43620;SDS011;29213;50.770;7.298;2023-02-08T04:57:49;17.55;;;10.93;;
43620;SDS011;29213;50.770;7.298;2023-02-08T05:00:15;15.85;;;9.98;;
43620;SDS011;29213;50.770;7.298;2023-02-08T05:02:40;16.23;;;10.25;;
43620;SDS011;29213;50.770;7.298;2023-02-08T05:05:06;15.55;;;10.50;;
43620;SDS011;29213;50.770;7.298;2023-02-08T05:07:31;16.85;;;9.88;;
43620;SDS011;29213;50.770;7.298;2023-02-08T05:09:57;15.40;;;10.30;;
43620;SDS011;29213;50.770;7.298;2023-02-08T05:12:22;16.30;;;10.75;;
43620;SDS011;29213;50.770;7.298;2023-02-08T05:14:48;14.98;;;10.43;;
43620;SDS011;29213;50.770;7.298;2023-02-08T05:17:13;16.00;;;11.07;;
43620;SDS011;29213;50.770;7.298;2023-02-08T05:19:39;15.60;;;10.40;;
43620;SDS011;29213;50.770;7.298;2023-02-08T05:22:04;14.70;;;10.45;;
43620;SDS011;29213;50.770;7.298;2023-02-08T05:24:30;16.55;;;10.57;;
43620;SDS011;29213;50.770;7.298;2023-02-08T05:26:55;16.38;;;10.30;;
43620;SDS011;29213;50.770;7.298;2023-02-08T05:29:20;17.08;;;10.07;;
43620;SDS011;29213;50.770;7.298;2023-02-08T05:31:46;17.42;;;10.48;;
43620;SDS011;29213;50.770;7.298;2023-02-08T05:34:11;17.15;;;10.45;;
43620;SDS011;29213;50.770;7.298;2023-02-08T05:36:37;16.45;;;9.93;;
43620;SDS011;29213;50.770;7.298;2023-02-08T05:39:03;17.40;;;10.65;;
43620;SDS011;29213;50.770;7.298;2023-02-08T05:41:29;17.25;;;10.60;;
43620;SDS011;29213;50.770;7.298;2023-02-08T05:43:54;17.25;;;10.50;;
43620;SDS011;29213;50.770;7.298;2023-02-08T05:46:19;16.85;;;10.32;;
43620;SDS011;29213;50.770;7.298;2023-02-08T05:48:45;15.55;;;10.10;;
43620;SDS011;29213;50.770;7.298;2023-02-08T05:51:10;17.98;;;10.77;;
43620;SDS011;29213;50.770;7.298;2023-02-08T05:53:36;21.67;;;12.20;;
43620;SDS011;29213;50.770;7.298;2023-02-08T05:56:01;19.38;;;12.80;;
43620;SDS011;29213;50.770;7.298;2023-02-08T05:58:27;18.30;;;12.02;;
43620;SDS011;29213;50.770;7.298;2023-02-08T06:00:53;22.08;;;13.05;;
43620;SDS011;29213;50.770;7.298;2023-02-08T06:03:18;21.52;;;14.32;;
43620;SDS011;29213;50.770;7.298;2023-02-08T06:05:44;24.83;;;18.08;;
43620;SDS011;29213;50.770;7.298;2023-02-08T06:08:09;23.17;;;15.65;;
43620;SDS011;29213;50.770;7.298;2023-02-08T06:10:35;20.65;;;14.57;;
43620;SDS011;29213;50.770;7.298;2023-02-08T06:13:00;21.05;;;13.48;;
43620;SDS011;29213;50.770;7.298;2023-02-08T06:15:26;20.95;;;13.20;;
43620;SDS011;29213;50.770;7.298;2023-02-08T06:17:52;20.27;;;12.57;;
43620;SDS011;29213;50.770;7.298;2023-02-08T06:20:18;21.05;;;12.52;;
43620;SDS011;29213;50.770;7.298;2023-02-08T06:22:43;17.98;;;11.75;;
43620;SDS011;29213;50.770;7.298;2023-02-08T06:25:09;18.50;;;11.27;;
43620;SDS011;29213;50.770;7.298;2023-02-08T06:27:34;16.83;;;10.48;;
43620;SDS011;29213;50.770;7.298;2023-02-08T06:30:00;18.08;;;11.50;;
43620;SDS011;29213;50.770;7.298;2023-02-08T06:32:25;21.20;;;12.40;;
43620;SDS011;29213;50.770;7.298;2023-02-08T06:34:50;21.42;;;11.70;;
43620;SDS011;29213;50.770;7.298;2023-02-08T06:37:16;18.05;;;11.35;;
43620;SDS011;29213;50.770;7.298;2023-02-08T06:39:42;17.77;;;10.93;;
43620;SDS011;29213;50.770;7.298;2023-02-08T06:42:07;19.67;;;11.52;;
43620;SDS011;29213;50.770;7.298;2023-02-08T06:44:33;16.40;;;11.02;;
43620;SDS011;29213;50.770;7.298;2023-02-08T06:46:58;18.00;;;11.37;;
43620;SDS011;29213;50.770;7.298;2023-02-08T06:49:24;17.10;;;11.50;;
43620;SDS011;29213;50.770;7.298;2023-02-08T06:51:49;18.33;;;11.53;;
43620;SDS011;29213;50.770;7.298;2023-02-08T06:54:14;18.10;;;11.43;;
43620;SDS011;29213;50.770;7.298;2023-02-08T06:56:40;17.70;;;11.10;;
43620;SDS011;29213;50.770;7.298;2023-02-08T06:59:06;20.47;;;11.87;;
43620;SDS011;29213;50.770;7.298;2023-02-08T07:01:31;18.85;;;11.80;;
43620;SDS011;29213;50.770;7.298;2023-02-08T07:03:56;17.67;;;11.27;;
43620;SDS011;29213;50.770;7.298;2023-02-08T07:06:22;18.67;;;11.57;;
43620;SDS011;29213;50.770;7.298;2023-02-08T07:08:47;20.10;;;12.47;;
43620;SDS011;29213;50.770;7.298;2023-02-08T07:11:14;20.77;;;12.25;;
43620;SDS011;29213;50.770;7.298;2023-02-08T07:13:41;17.53;;;10.97;;
43620;SDS011;29213;50.770;7.298;2023-02-08T07:16:11;17.38;;;11.57;;
43620;SDS011;29213;50.770;7.298;2023-02-08T07:18:37;18.57;;;12.70;;
43620;SDS011;29213;50.770;7.298;2023-02-08T07:21:02;19.80;;;13.07;;
43620;SDS011;29213;50.770;7.298;2023-02-08T07:23:28;19.93;;;11.80;;
43620;SDS011;29213;50.770;7.298;2023-02-08T07:26:00;19.80;;;11.93;;
43620;SDS011;29213;50.770;7.298;2023-02-08T07:28:30;19.73;;;12.07;;
43620;SDS011;29213;50.770;7.298;2023-02-08T07:30:56;21.23;;;11.53;;
43620;SDS011;29213;50.770;7.298;2023-02-08T07:33:21;18.33;;;11.00;;
43620;SDS011;29213;50.770;7.298;2023-02-08T07:35:47;16.58;;;11.23;;
43620;SDS011;29213;50.770;7.298;2023-02-08T07:38:13;18.02;;;11.98;;
43620;SDS011;29213;50.770;7.298;2023-02-08T07:40:39;23.30;;;13.13;;
43620;SDS011;29213;50.770;7.298;2023-02-08T07:43:04;18.08;;;12.30;;
43620;SDS011;29213;50.770;7.298;2023-02-08T07:45:29;17.73;;;11.85;;
43620;SDS011;29213;50.770;7.298;2023-02-08T07:47:55;17.45;;;11.23;;
43620;SDS011;29213;50.770;7.298;2023-02-08T07:50:21;18.42;;;11.80;;
43620;SDS011;29213;50.770;7.298;2023-02-08T07:52:46;18.70;;;11.75;;
43620;SDS011;29213;50.770;7.298;2023-02-08T07:55:12;17.17;;;11.13;;
43620;SDS011;29213;50.770;7.298;2023-02-08T07:57:44;19.92;;;12.20;;
43620;SDS011;29213;50.770;7.298;2023-02-08T08:00:10;17.25;;;11.18;;
43620;SDS011;29213;50.770;7.298;2023-02-08T08:02:36;20.25;;;11.48;;
43620;SDS011;29213;50.770;7.298;2023-02-08T08:05:03;17.38;;;11.50;;
43620;SDS011;29213;50.770;7.298;2023-02-08T08:07:29;17.67;;;11.38;;
43620;SDS011;29213;50.770;7.298;2023-02-08T08:09:54;19.52;;;11.90;;
43620;SDS011;29213;50.770;7.298;2023-02-08T08:12:20;17.23;;;11.32;;
43620;SDS011;29213;50.770;7.298;2023-02-08T08:14:45;20.33;;;11.55;;
43620;SDS011;29213;50.770;7.298;2023-02-08T08:17:11;17.02;;;11.45;;
43620;SDS011;29213;50.770;7.298;2023-02-08T08:19:36;16.90;;;11.45;;
43620;SDS011;29213;50.770;7.298;2023-02-08T08:22:02;19.13;;;12.48;;
43620;SDS011;29213;50.770;7.298;2023-02-08T08:24:27;20.17;;;13.27;;
43620;SDS011;29213;50.770;7.298;2023-02-08T08:26:54;17.40;;;12.40;;
43620;SDS011;29213;50.770;7.298;2023-02-08T08:29:19;18.27;;;12.60;;
43620;SDS011;29213;50.770;7.298;2023-02-08T08:31:45;21.13;;;13.65;;
43620;SDS011;29213;50.770;7.298;2023-02-08T08:34:10;20.17;;;13.80;;
43620;SDS011;29213;50.770;7.298;2023-02-08T08:36:36;20.20;;;13.70;;
43620;SDS011;29213;50.770;7.298;2023-02-08T08:39:01;20.75;;;12.82;;
43620;SDS011;29213;50.770;7.298;2023-02-08T08:41:26;21.33;;;13.63;;
43620;SDS011;29213;50.770;7.298;2023-02-08T08:43:52;18.65;;;12.82;;
43620;SDS011;29213;50.770;7.298;2023-02-08T08:46:18;19.33;;;12.75;;
43620;SDS011;29213;50.770;7.298;2023-02-08T08:48:44;19.48;;;13.18;;
43620;SDS011;29213;50.770;7.298;2023-02-08T08:51:10;23.58;;;14.57;;
43620;SDS011;29213;50.770;7.298;2023-02-08T08:53:37;17.65;;;12.45;;
43620;SDS011;29213;50.770;7.298;2023-02-08T08:56:02;17.48;;;11.82;;
43620;SDS011;29213;50.770;7.298;2023-02-08T08:58:29;17.98;;;11.70;;
43620;SDS011;29213;50.770;7.298;2023-02-08T09:00:55;17.25;;;11.15;;
43620;SDS011;29213;50.770;7.298;2023-02-08T09:03:22;17.70;;;10.70;;
43620;SDS011;29213;50.770;7.298;2023-02-08T09:05:47;15.07;;;9.98;;
43620;SDS011;29213;50.770;7.298;2023-02-08T09:08:13;14.48;;;9.63;;
43620;SDS011;29213;50.770;7.298;2023-02-08T09:10:40;14.55;;;9.60;;
43620;SDS011;29213;50.770;7.298;2023-02-08T09:13:06;13.13;;;9.18;;
43620;SDS011;29213;50.770;7.298;2023-02-08T09:15:31;13.82;;;8.60;;
43620;SDS011;29213;50.770;7.298;2023-02-08T09:17:57;12.13;;;7.88;;
43620;SDS011;29213;50.770;7.298;2023-02-08T09:20:22;13.82;;;8.02;;
43620;SDS011;29213;50.770;7.298;2023-02-08T09:22:48;13.63;;;8.23;;
43620;SDS011;29213;50.770;7.298;2023-02-08T09:25:13;15.40;;;9.63;;
43620;SDS011;29213;50.770;7.298;2023-02-08T09:27:39;14.77;;;8.80;;
43620;SDS011;29213;50.770;7.298;2023-02-08T09:30:04;13.63;;;8.32;;
43620;SDS011;29213;50.770;7.298;2023-02-08T09:32:30;13.15;;;8.02;;
43620;SDS011;29213;50.770;7.298;2023-02-08T09:37:27;12.93;;;7.75;;
43620;SDS011;29213;50.770;7.298;2023-02-08T09:39:53;11.88;;;7.18;;
43620;SDS011;29213;50.770;7.298;2023-02-08T09:47:59;12.98;;;8.10;;
43620;SDS011;29213;50.770;7.298;2023-02-08T09:50:33;14.75;;;9.00;;
43620;SDS011;29213;50.770;7.298;2023-02-08T09:55:37;12.45;;;7.97;;
43620;SDS011;29213;50.770;7.298;2023-02-08T09:58:12;11.10;;;7.68;;
43620;SDS011;29213;50.770;7.298;2023-02-08T10:00:44;12.65;;;8.05;;
43620;SDS011;29213;50.770;7.298;2023-02-08T10:03:54;12.65;;;7.70;;
43620;SDS011;29213;50.770;7.298;2023-02-08T10:06:08;13.27;;;8.25;;
43620;SDS011;29213;50.770;7.298;2023-02-08T10:08:37;12.00;;;7.97;;
43620;SDS011;29213;50.770;7.298;2023-02-08T10:17:18;11.00;;;7.57;;
43620;SDS011;29213;50.770;7.298;2023-02-08T10:36:49;11.55;;;6.93;;
43620;SDS011;29213;50.770;7.298;2023-02-08T10:39:16;11.80;;;7.38;;
43620;SDS011;29213;50.770;7.298;2023-02-08T10:41:44;9.68;;;6.38;;
43620;SDS011;29213;50.770;7.298;2023-02-08T10:49:34;9.80;;;6.40;;
43620;SDS011;29213;50.770;7.298;2023-02-08T10:52:06;10.90;;;6.95;;
43620;SDS011;29213;50.770;7.298;2023-02-08T10:54:35;10.10;;;6.10;;
43620;SDS011;29213;50.770;7.298;2023-02-08T10:57:02;11.20;;;7.13;;
43620;SDS011;29213;50.770;7.298;2023-02-08T10:59:32;10.02;;;6.53;;
43620;SDS011;29213;50.770;7.298;2023-02-08T11:04:26;10.30;;;6.22;;
43620;SDS011;29213;50.770;7.298;2023-02-08T11:06:51;9.63;;;5.70;;
43620;SDS011;29213;50.770;7.298;2023-02-08T11:09:23;8.95;;;5.03;;
43620;SDS011;29213;50.770;7.298;2023-02-08T11:11:56;8.18;;;5.40;;
43620;SDS011;29213;50.770;7.298;2023-02-08T11:14:25;8.10;;;5.45;;
43620;SDS011;29213;50.770;7.298;2023-02-08T11:16:56;8.60;;;4.82;;
43620;SDS011;29213;50.770;7.298;2023-02-08T11:22:00;8.68;;;5.32;;
43620;SDS011;29213;50.770;7.298;2023-02-08T11:24:34;7.97;;;5.25;;
43620;SDS011;29213;50.770;7.298;2023-02-08T11:32:43;8.18;;;5.35;;
43620;SDS011;29213;50.770;7.298;2023-02-08T11:35:31;8.63;;;5.18;;
43620;SDS011;29213;50.770;7.298;2023-02-08T11:37:57;8.38;;;4.93;;
43620;SDS011;29213;50.770;7.298;2023-02-08T11:40:42;8.85;;;5.53;;
43620;SDS011;29213;50.770;7.298;2023-02-08T11:43:22;8.80;;;5.57;;
43620;SDS011;29213;50.770;7.298;2023-02-08T11:45:51;8.05;;;5.13;;
43620;SDS011;29213;50.770;7.298;2023-02-08T11:48:21;7.97;;;5.13;;
43620;SDS011;29213;50.770;7.298;2023-02-08T11:50:53;7.43;;;4.60;;
43620;SDS011;29213;50.770;7.298;2023-02-08T11:53:26;9.15;;;5.03;;
43620;SDS011;29213;50.770;7.298;2023-02-08T11:56:06;7.32;;;4.93;;
43620;SDS011;29213;50.770;7.298;2023-02-08T11:58:39;9.55;;;5.18;;
43620;SDS011;29213;50.770;7.298;2023-02-08T12:01:15;7.82;;;5.10;;
43620;SDS011;29213;50.770;7.298;2023-02-08T12:03:44;8.82;;;5.55;;
43620;SDS011;29213;50.770;7.298;2023-02-08T12:11:45;6.88;;;4.43;;
43620;SDS011;29213;50.770;7.298;2023-02-08T12:14:37;7.18;;;4.30;;
43620;SDS011;29213;50.770;7.298;2023-02-08T12:20:12;7.28;;;4.78;;
43620;SDS011;29213;50.770;7.298;2023-02-08T12:28:09;5.65;;;3.70;;
43620;SDS011;29213;50.770;7.298;2023-02-08T12:31:04;6.93;;;3.83;;
43620;SDS011;29213;50.770;7.298;2023-02-08T12:36:46;7.50;;;3.60;;
43620;SDS011;29213;50.770;7.298;2023-02-08T12:48:24;6.70;;;3.10;;
43620;SDS011;29213;50.770;7.298;2023-02-08T12:54:32;5.38;;;3.45;;
43620;SDS011;29213;50.770;7.298;2023-02-08T12:57:05;5.00;;;3.15;;
43620;SDS011;29213;50.770;7.298;2023-02-08T12:59:37;5.05;;;2.70;;
43620;SDS011;29213;50.770;7.298;2023-02-08T13:02:41;5.53;;;3.22;;
43620;SDS011;29213;50.770;7.298;2023-02-08T13:05:12;5.40;;;3.30;;
43620;SDS011;29213;50.770;7.298;2023-02-08T13:07:42;6.07;;;3.00;;
43620;SDS011;29213;50.770;7.298;2023-02-08T13:10:27;6.80;;;4.10;;
43620;SDS011;29213;50.770;7.298;2023-02-08T13:13:06;5.50;;;3.33;;
43620;SDS011;29213;50.770;7.298;2023-02-08T13:15:42;6.00;;;3.03;;
43620;SDS011;29213;50.770;7.298;2023-02-08T13:18:12;4.18;;;2.72;;
43620;SDS011;29213;50.770;7.298;2023-02-08T13:20:40;5.50;;;3.13;;
43620;SDS011;29213;50.770;7.298;2023-02-08T13:23:12;5.82;;;3.00;;
43620;SDS011;29213;50.770;7.298;2023-02-08T13:25:44;4.95;;;3.05;;
43620;SDS011;29213;50.770;7.298;2023-02-08T13:28:15;5.63;;;3.05;;
43620;SDS011;29213;50.770;7.298;2023-02-08T13:30:44;4.80;;;2.67;;
43620;SDS011;29213;50.770;7.298;2023-02-08T13:33:17;4.93;;;2.65;;
43620;SDS011;29213;50.770;7.298;2023-02-08T13:35:50;5.28;;;3.00;;
43620;SDS011;29213;50.770;7.298;2023-02-08T13:40:57;4.65;;;2.50;;
43620;SDS011;29213;50.770;7.298;2023-02-08T13:43:49;4.57;;;2.60;;
43620;SDS011;29213;50.770;7.298;2023-02-08T13:46:17;4.65;;;2.53;;
43620;SDS011;29213;50.770;7.298;2023-02-08T13:48:48;4.68;;;2.20;;
43620;SDS011;29213;50.770;7.298;2023-02-08T13:54:17;5.60;;;2.90;;
43620;SDS011;29213;50.770;7.298;2023-02-08T13:56:43;6.45;;;2.80;;
43620;SDS011;29213;50.770;7.298;2023-02-08T14:04:41;5.50;;;2.88;;
43620;SDS011;29213;50.770;7.298;2023-02-08T14:10:02;4.88;;;2.63;;
43620;SDS011;29213;50.770;7.298;2023-02-08T14:12:36;4.60;;;2.80;;
43620;SDS011;29213;50.770;7.298;2023-02-08T14:17:40;5.97;;;3.08;;
43620;SDS011;29213;50.770;7.298;2023-02-08T14:20:15;4.57;;;2.80;;
43620;SDS011;29213;50.770;7.298;2023-02-08T14:22:55;5.40;;;2.83;;
43620;SDS011;29213;50.770;7.298;2023-02-08T14:25:24;5.68;;;2.70;;
43620;SDS011;29213;50.770;7.298;2023-02-08T14:27:57;5.25;;;2.95;;
43620;SDS011;29213;50.770;7.298;2023-02-08T14:30:26;5.55;;;2.95;;
43620;SDS011;29213;50.770;7.298;2023-02-08T14:35:30;4.38;;;2.78;;
43620;SDS011;29213;50.770;7.298;2023-02-08T14:40:49;5.75;;;3.50;;
43620;SDS011;29213;50.770;7.298;2023-02-08T14:46:40;6.45;;;3.25;;
43620;SDS011;29213;50.770;7.298;2023-02-08T14:49:04;4.90;;;2.92;;
43620;SDS011;29213;50.770;7.298;2023-02-08T14:51:36;5.38;;;3.20;;
43620;SDS011;29213;50.770;7.298;2023-02-08T14:54:13;6.45;;;3.60;;
43620;SDS011;29213;50.770;7.298;2023-02-08T14:56:46;6.45;;;3.70;;
43620;SDS011;29213;50.770;7.298;2023-02-08T14:59:19;6.50;;;3.60;;
43620;SDS011;29213;50.770;7.298;2023-02-08T15:01:51;5.38;;;3.30;;
43620;SDS011;29213;50.770;7.298;2023-02-08T15:04:20;5.75;;;3.42;;
43620;SDS011;29213;50.770;7.298;2023-02-08T15:09:36;6.57;;;3.70;;
43620;SDS011;29213;50.770;7.298;2023-02-08T15:12:06;5.53;;;3.53;;
43620;SDS011;29213;50.770;7.298;2023-02-08T15:14:54;5.97;;;3.50;;
43620;SDS011;29213;50.770;7.298;2023-02-08T15:20:01;7.40;;;4.20;;
43620;SDS011;29213;50.770;7.298;2023-02-08T15:22:36;9.73;;;4.10;;
43620;SDS011;29213;50.770;7.298;2023-02-08T15:27:50;6.47;;;3.92;;
43620;SDS011;29213;50.770;7.298;2023-02-08T15:30:36;7.57;;;4.30;;
43620;SDS011;29213;50.770;7.298;2023-02-08T15:33:12;6.43;;;4.07;;
43620;SDS011;29213;50.770;7.298;2023-02-08T15:35:41;7.18;;;4.10;;
43620;SDS011;29213;50.770;7.298;2023-02-08T15:38:13;7.15;;;4.47;;
43620;SDS011;29213;50.770;7.298;2023-02-08T15:40:42;7.32;;;4.05;;
43620;SDS011;29213;50.770;7.298;2023-02-08T15:45:32;8.30;;;4.70;;
43620;SDS011;29213;50.770;7.298;2023-02-08T15:47:58;8.55;;;5.15;;
43620;SDS011;29213;50.770;7.298;2023-02-08T15:50:25;7.93;;;4.90;;
43620;SDS011;29213;50.770;7.298;2023-02-08T15:52:59;8.40;;;5.18;;
43620;SDS011;29213;50.770;7.298;2023-02-08T15:55:28;7.75;;;4.93;;
43620;SDS011;29213;50.770;7.298;2023-02-08T15:58:05;9.45;;;5.40;;
43620;SDS011;29213;50.770;7.298;2023-02-08T16:00:40;8.07;;;4.78;;
43620;SDS011;29213;50.770;7.298;2023-02-08T16:03:08;8.77;;;5.43;;
43620;SDS011;29213;50.770;7.298;2023-02-08T16:05:54;9.35;;;5.75;;
43620;SDS011;29213;50.770;7.298;2023-02-08T16:08:31;10.13;;;6.40;;
43620;SDS011;29213;50.770;7.298;2023-02-08T16:11:03;9.10;;;5.88;;
43620;SDS011;29213;50.770;7.298;2023-02-08T16:13:37;9.25;;;6.07;;
43620;SDS011;29213;50.770;7.298;2023-02-08T16:16:23;9.00;;;5.88;;
43620;SDS011;29213;50.770;7.298;2023-02-08T16:19:01;9.02;;;5.78;;
43620;SDS011;29213;50.770;7.298;2023-02-08T16:21:33;8.20;;;5.50;;
43620;SDS011;29213;50.770;7.298;2023-02-08T16:24:21;7.72;;;5.38;;
43620;SDS011;29213;50.770;7.298;2023-02-08T16:29:23;8.23;;;5.53;;
43620;SDS011;29213;50.770;7.298;2023-02-08T16:34:22;8.70;;;5.63;;
43620;SDS011;29213;50.770;7.298;2023-02-08T16:36:48;8.32;;;5.50;;
43620;SDS011;29213;50.770;7.298;2023-02-08T16:46:48;10.63;;;5.93;;
43620;SDS011;29213;50.770;7.298;2023-02-08T16:49:14;12.57;;;7.28;;
43620;SDS011;29213;50.770;7.298;2023-02-08T16:51:39;9.65;;;6.28;;
43620;SDS011;29213;50.770;7.298;2023-02-08T16:54:11;11.18;;;6.53;;
43620;SDS011;29213;50.770;7.298;2023-02-08T16:56:39;11.68;;;6.72;;
43620;SDS011;29213;50.770;7.298;2023-02-08T16:59:06;9.68;;;5.72;;
43620;SDS011;29213;50.770;7.298;2023-02-08T17:01:32;8.52;;;5.15;;
43620;SDS011;29213;50.770;7.298;2023-02-08T17:03:58;10.65;;;5.97;;
43620;SDS011;29213;50.770;7.298;2023-02-08T17:06:31;16.05;;;8.63;;
43620;SDS011;29213;50.770;7.298;2023-02-08T17:08:59;11.68;;;7.18;;
43620;SDS011;29213;50.770;7.298;2023-02-08T17:11:25;16.00;;;9.75;;
43620;SDS011;29213;50.770;7.298;2023-02-08T17:13:52;17.67;;;10.77;;
43620;SDS011;29213;50.770;7.298;2023-02-08T17:16:18;25.05;;;14.95;;
43620;SDS011;29213;50.770;7.298;2023-02-08T17:21:13;26.25;;;15.80;;
43620;SDS011;29213;50.770;7.298;2023-02-08T17:23:39;30.80;;;18.45;;
43620;SDS011;29213;50.770;7.298;2023-02-08T17:26:26;17.95;;;10.57;;
43620;SDS011;29213;50.770;7.298;2023-02-08T17:28:52;14.63;;;8.70;;
43620;SDS011;29213;50.770;7.298;2023-02-08T17:31:18;15.43;;;9.10;;